sensor_id;sensor_type;location;lat;lon;timestamp;temperature;humidity
3298;DHT22;1661;53.572;10.174;2023-02-01T00:02:11;5.50;88.50
3298;DHT22;1661;53.572;10.174;2023-02-01T00:04:38;5.50;88.00
3298;DHT22;1661;53.572;10.174;2023-02-01T00:07:05;5.40;87.50
3298;DHT22;1661;53.572;10.174;2023-02-01T00:09:32;5.50;88.20
3298;DHT22;1661;53.572;10.174;2023-02-01T00:12:00;5.50;88.40
3298;DHT22;1661;53.572;10.174;2023-02-01T00:14:28;5.50;88.20
3298;DHT22;1661;53.572;10.174;2023-02-01T00:16:56;5.50;89.00
3298;DHT22;1661;53.572;10.174;2023-02-01T00:19:23;5.50;89.10
3298;DHT22;1661;53.572;10.174;2023-02-01T00:21:50;5.50;89.30
3298;DHT22;1661;53.572;10.174;2023-02-01T00:24:16;5.50;89.70
3298;DHT22;1661;53.572;10.174;2023-02-01T00:26:44;5.60;89.90
3298;DHT22;1661;53.572;10.174;2023-02-01T00:29:14;5.60;90.20
3298;DHT22;1661;53.572;10.174;2023-02-01T00:31:41;5.60;90.00
3298;DHT22;1661;53.572;10.174;2023-02-01T00:34:12;5.60;90.30
3298;DHT22;1661;53.572;10.174;2023-02-01T00:36:39;5.60;90.00
3298;DHT22;1661;53.572;10.174;2023-02-01T00:39:06;5.60;89.80
3298;DHT22;1661;53.572;10.174;2023-02-01T00:41:33;5.50;89.90
3298;DHT22;1661;53.572;10.174;2023-02-01T00:44:00;5.50;90.00
3298;DHT22;1661;53.572;10.174;2023-02-01T00:46:27;5.50;89.30
3298;DHT22;1661;53.572;10.174;2023-02-01T00:48:54;5.50;89.30
3298;DHT22;1661;53.572;10.174;2023-02-01T00:51:25;5.40;89.50
3298;DHT22;1661;53.572;10.174;2023-02-01T00:53:53;5.50;89.30
3298;DHT22;1661;53.572;10.174;2023-02-01T00:56:20;5.50;89.40
3298;DHT22;1661;53.572;10.174;2023-02-01T00:58:47;5.60;89.10
3298;DHT22;1661;53.572;10.174;2023-02-01T01:01:16;5.60;89.10
3298;DHT22;1661;53.572;10.174;2023-02-01T01:03:44;5.70;89.10
3298;DHT22;1661;53.572;10.174;2023-02-01T01:06:14;5.70;89.20
3298;DHT22;1661;53.572;10.174;2023-02-01T01:08:43;5.80;88.80
3298;DHT22;1661;53.572;10.174;2023-02-01T01:11:13;5.80;89.30
3298;DHT22;1661;53.572;10.174;2023-02-01T01:13:40;5.80;89.20
3298;DHT22;1661;53.572;10.174;2023-02-01T01:16:08;5.80;89.50
3298;DHT22;1661;53.572;10.174;2023-02-01T01:18:36;5.80;89.20
3298;DHT22;1661;53.572;10.174;2023-02-01T01:21:04;5.80;89.30
3298;DHT22;1661;53.572;10.174;2023-02-01T01:23:31;5.80;89.30
3298;DHT22;1661;53.572;10.174;2023-02-01T01:25:59;5.80;89.10
3298;DHT22;1661;53.572;10.174;2023-02-01T01:28:26;5.80;89.30
3298;DHT22;1661;53.572;10.174;2023-02-01T01:30:53;5.80;89.20
3298;DHT22;1661;53.572;10.174;2023-02-01T01:33:20;5.80;88.50
3298;DHT22;1661;53.572;10.174;2023-02-01T01:35:46;5.90;89.00
3298;DHT22;1661;53.572;10.174;2023-02-01T01:38:13;6.00;88.50
3298;DHT22;1661;53.572;10.174;2023-02-01T01:40:44;5.90;88.50
3298;DHT22;1661;53.572;10.174;2023-02-01T01:43:14;5.90;88.40
3298;DHT22;1661;53.572;10.174;2023-02-01T01:45:42;6.00;88.30
3298;DHT22;1661;53.572;10.174;2023-02-01T01:48:13;6.00;88.20
3298;DHT22;1661;53.572;10.174;2023-02-01T01:50:44;6.00;87.70
3298;DHT22;1661;53.572;10.174;2023-02-01T01:53:17;6.00;88.00
3298;DHT22;1661;53.572;10.174;2023-02-01T01:55:46;6.00;87.90
3298;DHT22;1661;53.572;10.174;2023-02-01T01:58:17;6.00;87.60
3298;DHT22;1661;53.572;10.174;2023-02-01T02:00:44;6.00;88.10
3298;DHT22;1661;53.572;10.174;2023-02-01T02:03:15;6.00;88.00
3298;DHT22;1661;53.572;10.174;2023-02-01T02:05:46;6.00;88.00
3298;DHT22;1661;53.572;10.174;2023-02-01T02:08:14;6.00;87.90
3298;DHT22;1661;53.572;10.174;2023-02-01T02:10:41;6.00;88.30
3298;DHT22;1661;53.572;10.174;2023-02-01T02:13:29;6.00;88.30
3298;DHT22;1661;53.572;10.174;2023-02-01T02:16:05;6.10;88.10
3298;DHT22;1661;53.572;10.174;2023-02-01T02:18:39;6.10;87.90
3298;DHT22;1661;53.572;10.174;2023-02-01T02:21:14;6.20;87.70
3298;DHT22;1661;53.572;10.174;2023-02-01T02:33:13;6.20;87.80
3298;DHT22;1661;53.572;10.174;2023-02-01T02:35:43;6.20;87.40
3298;DHT22;1661;53.572;10.174;2023-02-01T02:38:17;6.20;87.10
3298;DHT22;1661;53.572;10.174;2023-02-01T02:40:49;6.10;87.80
3298;DHT22;1661;53.572;10.174;2023-02-01T02:43:22;6.20;87.80
3298;DHT22;1661;53.572;10.174;2023-02-01T02:46:14;6.20;87.60
3298;DHT22;1661;53.572;10.174;2023-02-01T02:49:05;6.20;87.80
3298;DHT22;1661;53.572;10.174;2023-02-01T02:51:39;6.20;88.30
3298;DHT22;1661;53.572;10.174;2023-02-01T02:54:29;6.20;88.50
3298;DHT22;1661;53.572;10.174;2023-02-01T02:57:14;6.20;88.80
3298;DHT22;1661;53.572;10.174;2023-02-01T03:00:03;6.20;88.70
3298;DHT22;1661;53.572;10.174;2023-02-01T03:02:49;6.20;89.10
3298;DHT22;1661;53.572;10.174;2023-02-01T03:05:35;6.30;89.10
3298;DHT22;1661;53.572;10.174;2023-02-01T03:08:05;6.30;89.00
3298;DHT22;1661;53.572;10.174;2023-02-01T03:10:43;6.30;89.00
3298;DHT22;1661;53.572;10.174;2023-02-01T03:13:15;6.30;88.80
3298;DHT22;1661;53.572;10.174;2023-02-01T03:15:49;6.30;88.60
3298;DHT22;1661;53.572;10.174;2023-02-01T03:18:23;6.30;89.20
3298;DHT22;1661;53.572;10.174;2023-02-01T03:20:54;6.20;89.40
3298;DHT22;1661;53.572;10.174;2023-02-01T03:23:24;6.00;91.00
3298;DHT22;1661;53.572;10.174;2023-02-01T03:25:53;6.00;91.90
3298;DHT22;1661;53.572;10.174;2023-02-01T03:28:23;5.90;91.80
3298;DHT22;1661;53.572;10.174;2023-02-01T03:30:52;5.80;92.60
3298;DHT22;1661;53.572;10.174;2023-02-01T03:33:22;5.80;93.20
3298;DHT22;1661;53.572;10.174;2023-02-01T03:35:57;5.80;93.10
3298;DHT22;1661;53.572;10.174;2023-02-01T03:38:29;5.90;93.00
3298;DHT22;1661;53.572;10.174;2023-02-01T03:41:09;5.90;92.60
3298;DHT22;1661;53.572;10.174;2023-02-01T03:43:45;5.80;92.70
3298;DHT22;1661;53.572;10.174;2023-02-01T03:46:18;5.70;92.90
3298;DHT22;1661;53.572;10.174;2023-02-01T03:48:48;5.60;92.50
3298;DHT22;1661;53.572;10.174;2023-02-01T03:51:17;5.60;92.80
3298;DHT22;1661;53.572;10.174;2023-02-01T03:53:47;5.60;92.90
3298;DHT22;1661;53.572;10.174;2023-02-01T03:56:16;5.60;93.00
3298;DHT22;1661;53.572;10.174;2023-02-01T03:58:44;5.60;92.90
3298;DHT22;1661;53.572;10.174;2023-02-01T04:01:25;5.70;93.00
3298;DHT22;1661;53.572;10.174;2023-02-01T04:03:53;5.70;92.70
3298;DHT22;1661;53.572;10.174;2023-02-01T04:06:21;5.70;92.50
3298;DHT22;1661;53.572;10.174;2023-02-01T04:08:48;5.70;92.60
3298;DHT22;1661;53.572;10.174;2023-02-01T04:11:14;5.80;92.50
3298;DHT22;1661;53.572;10.174;2023-02-01T04:13:41;5.80;92.40
3298;DHT22;1661;53.572;10.174;2023-02-01T04:16:08;5.80;92.20
3298;DHT22;1661;53.572;10.174;2023-02-01T04:18:35;5.80;92.20
3298;DHT22;1661;53.572;10.174;2023-02-01T04:21:02;5.70;92.20
3298;DHT22;1661;53.572;10.174;2023-02-01T04:23:30;5.70;92.50
3298;DHT22;1661;53.572;10.174;2023-02-01T04:26:01;5.70;92.60
3298;DHT22;1661;53.572;10.174;2023-02-01T04:28:28;5.70;92.80
3298;DHT22;1661;53.572;10.174;2023-02-01T04:30:55;5.70;92.80
3298;DHT22;1661;53.572;10.174;2023-02-01T04:33:22;5.60;93.10
3298;DHT22;1661;53.572;10.174;2023-02-01T04:35:50;5.50;93.50
3298;DHT22;1661;53.572;10.174;2023-02-01T04:38:17;5.60;93.60
3298;DHT22;1661;53.572;10.174;2023-02-01T04:40:46;5.60;93.50
3298;DHT22;1661;53.572;10.174;2023-02-01T04:43:13;5.60;93.40
3298;DHT22;1661;53.572;10.174;2023-02-01T04:45:40;5.50;93.20
3298;DHT22;1661;53.572;10.174;2023-02-01T04:48:07;5.40;93.40
3298;DHT22;1661;53.572;10.174;2023-02-01T04:50:34;5.50;93.50
3298;DHT22;1661;53.572;10.174;2023-02-01T04:53:00;5.40;93.50
3298;DHT22;1661;53.572;10.174;2023-02-01T04:55:27;5.40;93.60
3298;DHT22;1661;53.572;10.174;2023-02-01T04:57:56;5.40;93.40
3298;DHT22;1661;53.572;10.174;2023-02-01T05:00:23;5.30;93.60
3298;DHT22;1661;53.572;10.174;2023-02-01T05:02:50;5.20;94.00
3298;DHT22;1661;53.572;10.174;2023-02-01T05:05:16;5.30;94.30
3298;DHT22;1661;53.572;10.174;2023-02-01T05:07:43;5.20;93.70
3298;DHT22;1661;53.572;10.174;2023-02-01T05:10:11;5.20;94.70
3298;DHT22;1661;53.572;10.174;2023-02-01T05:12:38;5.20;94.40
3298;DHT22;1661;53.572;10.174;2023-02-01T05:15:24;5.20;94.60
3298;DHT22;1661;53.572;10.174;2023-02-01T05:17:51;5.00;94.80
3298;DHT22;1661;53.572;10.174;2023-02-01T05:20:18;5.00;94.70
3298;DHT22;1661;53.572;10.174;2023-02-01T05:22:44;5.00;95.00
3298;DHT22;1661;53.572;10.174;2023-02-01T05:25:11;5.00;95.20
3298;DHT22;1661;53.572;10.174;2023-02-01T05:27:38;4.80;94.70
3298;DHT22;1661;53.572;10.174;2023-02-01T05:30:08;4.80;94.70
3298;DHT22;1661;53.572;10.174;2023-02-01T05:32:36;4.70;94.40
3298;DHT22;1661;53.572;10.174;2023-02-01T05:35:04;4.60;93.90
3298;DHT22;1661;53.572;10.174;2023-02-01T05:37:31;4.50;94.10
3298;DHT22;1661;53.572;10.174;2023-02-01T05:39:57;4.50;94.20
3298;DHT22;1661;53.572;10.174;2023-02-01T05:42:24;4.50;94.10
3298;DHT22;1661;53.572;10.174;2023-02-01T05:44:51;4.50;94.00
3298;DHT22;1661;53.572;10.174;2023-02-01T05:47:18;4.50;93.70
3298;DHT22;1661;53.572;10.174;2023-02-01T05:49:48;4.50;93.80
3298;DHT22;1661;53.572;10.174;2023-02-01T05:52:14;4.50;93.70
3298;DHT22;1661;53.572;10.174;2023-02-01T05:54:44;4.40;93.50
3298;DHT22;1661;53.572;10.174;2023-02-01T05:57:11;4.20;93.50
3298;DHT22;1661;53.572;10.174;2023-02-01T05:59:39;4.20;94.40
3298;DHT22;1661;53.572;10.174;2023-02-01T06:02:10;4.20;94.30
3298;DHT22;1661;53.572;10.174;2023-02-01T06:04:37;4.20;94.40
3298;DHT22;1661;53.572;10.174;2023-02-01T06:07:05;4.20;94.40
3298;DHT22;1661;53.572;10.174;2023-02-01T06:09:33;4.10;95.00
3298;DHT22;1661;53.572;10.174;2023-02-01T06:12:00;4.00;95.10
3298;DHT22;1661;53.572;10.174;2023-02-01T06:14:27;4.00;95.20
3298;DHT22;1661;53.572;10.174;2023-02-01T06:16:54;4.10;95.20
3298;DHT22;1661;53.572;10.174;2023-02-01T06:19:21;4.10;95.10
3298;DHT22;1661;53.572;10.174;2023-02-01T06:21:48;4.10;94.80
3298;DHT22;1661;53.572;10.174;2023-02-01T06:24:17;4.10;95.00
3298;DHT22;1661;53.572;10.174;2023-02-01T06:26:44;4.10;95.20
3298;DHT22;1661;53.572;10.174;2023-02-01T06:29:11;4.10;95.00
3298;DHT22;1661;53.572;10.174;2023-02-01T06:31:38;4.20;95.10
3298;DHT22;1661;53.572;10.174;2023-02-01T06:34:05;4.40;95.00
3298;DHT22;1661;53.572;10.174;2023-02-01T06:36:32;4.40;94.60
3298;DHT22;1661;53.572;10.174;2023-02-01T06:38:58;4.40;94.30
3298;DHT22;1661;53.572;10.174;2023-02-01T06:41:27;4.40;94.50
3298;DHT22;1661;53.572;10.174;2023-02-01T06:43:53;4.50;94.50
3298;DHT22;1661;53.572;10.174;2023-02-01T06:46:20;4.60;94.20
3298;DHT22;1661;53.572;10.174;2023-02-01T06:48:47;4.60;93.90
3298;DHT22;1661;53.572;10.174;2023-02-01T06:51:22;4.70;94.00
3298;DHT22;1661;53.572;10.174;2023-02-01T06:53:49;4.70;94.00
3298;DHT22;1661;53.572;10.174;2023-02-01T06:56:16;4.60;94.10
3298;DHT22;1661;53.572;10.174;2023-02-01T06:58:44;4.70;94.30
3298;DHT22;1661;53.572;10.174;2023-02-01T07:01:12;4.80;94.30
3298;DHT22;1661;53.572;10.174;2023-02-01T07:03:39;4.80;94.50
3298;DHT22;1661;53.572;10.174;2023-02-01T07:06:07;4.80;94.40
3298;DHT22;1661;53.572;10.174;2023-02-01T07:08:36;4.90;94.50
3298;DHT22;1661;53.572;10.174;2023-02-01T07:11:05;4.90;94.40
3298;DHT22;1661;53.572;10.174;2023-02-01T07:13:32;4.90;94.50
3298;DHT22;1661;53.572;10.174;2023-02-01T07:16:01;4.90;94.60
3298;DHT22;1661;53.572;10.174;2023-02-01T07:18:28;4.90;94.80
3298;DHT22;1661;53.572;10.174;2023-02-01T07:20:55;4.90;94.90
3298;DHT22;1661;53.572;10.174;2023-02-01T07:23:25;4.90;95.00
3298;DHT22;1661;53.572;10.174;2023-02-01T07:25:56;4.90;95.20
3298;DHT22;1661;53.572;10.174;2023-02-01T07:28:23;4.90;95.30
3298;DHT22;1661;53.572;10.174;2023-02-01T07:30:50;4.90;95.50
3298;DHT22;1661;53.572;10.174;2023-02-01T07:33:20;4.80;96.40
3298;DHT22;1661;53.572;10.174;2023-02-01T07:35:48;4.80;96.40
3298;DHT22;1661;53.572;10.174;2023-02-01T07:38:15;4.80;97.00
3298;DHT22;1661;53.572;10.174;2023-02-01T07:40:42;4.90;97.10
3298;DHT22;1661;53.572;10.174;2023-02-01T07:43:09;4.90;97.00
3298;DHT22;1661;53.572;10.174;2023-02-01T07:45:36;5.00;96.80
3298;DHT22;1661;53.572;10.174;2023-02-01T07:48:04;5.10;96.90
3298;DHT22;1661;53.572;10.174;2023-02-01T07:50:32;5.20;96.70
3298;DHT22;1661;53.572;10.174;2023-02-01T07:52:59;5.10;96.20
3298;DHT22;1661;53.572;10.174;2023-02-01T07:55:26;5.20;96.10
3298;DHT22;1661;53.572;10.174;2023-02-01T07:57:56;5.10;95.70
3298;DHT22;1661;53.572;10.174;2023-02-01T08:00:23;5.10;95.70
3298;DHT22;1661;53.572;10.174;2023-02-01T08:03:08;5.00;95.80
3298;DHT22;1661;53.572;10.174;2023-02-01T08:05:37;5.20;95.80
3298;DHT22;1661;53.572;10.174;2023-02-01T08:08:04;5.20;95.40
3298;DHT22;1661;53.572;10.174;2023-02-01T08:10:31;5.30;95.30
3298;DHT22;1661;53.572;10.174;2023-02-01T08:12:59;5.30;95.50
3298;DHT22;1661;53.572;10.174;2023-02-01T08:15:26;5.40;95.30
3298;DHT22;1661;53.572;10.174;2023-02-01T08:17:53;5.40;95.50
3298;DHT22;1661;53.572;10.174;2023-02-01T08:20:21;5.50;95.60
3298;DHT22;1661;53.572;10.174;2023-02-01T08:22:50;5.50;95.80
3298;DHT22;1661;53.572;10.174;2023-02-01T08:25:17;5.60;95.90
3298;DHT22;1661;53.572;10.174;2023-02-01T08:27:44;5.60;95.80
3298;DHT22;1661;53.572;10.174;2023-02-01T08:30:12;5.60;95.80
3298;DHT22;1661;53.572;10.174;2023-02-01T08:32:39;5.70;95.90
3298;DHT22;1661;53.572;10.174;2023-02-01T08:35:06;5.60;95.90
3298;DHT22;1661;53.572;10.174;2023-02-01T08:37:33;5.60;96.00
3298;DHT22;1661;53.572;10.174;2023-02-01T08:40:02;5.60;95.70
3298;DHT22;1661;53.572;10.174;2023-02-01T08:42:28;5.60;95.90
3298;DHT22;1661;53.572;10.174;2023-02-01T08:45:13;5.60;95.80
3298;DHT22;1661;53.572;10.174;2023-02-01T08:47:40;5.80;95.70
3298;DHT22;1661;53.572;10.174;2023-02-01T08:50:08;5.80;95.50
3298;DHT22;1661;53.572;10.174;2023-02-01T08:52:35;5.80;94.70
3298;DHT22;1661;53.572;10.174;2023-02-01T08:55:04;5.80;94.10
3298;DHT22;1661;53.572;10.174;2023-02-01T08:57:32;5.60;92.50
3298;DHT22;1661;53.572;10.174;2023-02-01T08:59:59;5.60;91.50
3298;DHT22;1661;53.572;10.174;2023-02-01T09:02:26;5.70;91.70
3298;DHT22;1661;53.572;10.174;2023-02-01T09:04:53;5.70;91.60
3298;DHT22;1661;53.572;10.174;2023-02-01T09:07:19;5.70;91.90
3298;DHT22;1661;53.572;10.174;2023-02-01T09:09:47;5.80;92.30
3298;DHT22;1661;53.572;10.174;2023-02-01T09:12:15;5.80;92.10
3298;DHT22;1661;53.572;10.174;2023-02-01T09:14:42;5.80;92.40
3298;DHT22;1661;53.572;10.174;2023-02-01T09:17:08;5.90;92.50
3298;DHT22;1661;53.572;10.174;2023-02-01T09:19:35;6.00;92.50
3298;DHT22;1661;53.572;10.174;2023-02-01T09:22:02;6.10;92.30
3298;DHT22;1661;53.572;10.174;2023-02-01T09:24:29;6.20;92.40
3298;DHT22;1661;53.572;10.174;2023-02-01T09:26:57;6.20;92.50
3298;DHT22;1661;53.572;10.174;2023-02-01T09:29:25;6.30;92.20
3298;DHT22;1661;53.572;10.174;2023-02-01T09:31:52;6.30;92.10
3298;DHT22;1661;53.572;10.174;2023-02-01T09:34:19;6.30;92.10
3298;DHT22;1661;53.572;10.174;2023-02-01T09:36:46;6.50;91.60
3298;DHT22;1661;53.572;10.174;2023-02-01T09:39:12;6.70;90.90
3298;DHT22;1661;53.572;10.174;2023-02-01T09:41:49;6.80;90.10
3298;DHT22;1661;53.572;10.174;2023-02-01T09:44:31;6.80;89.50
3298;DHT22;1661;53.572;10.174;2023-02-01T09:47:01;6.90;89.30
3298;DHT22;1661;53.572;10.174;2023-02-01T09:49:30;6.80;88.50
3298;DHT22;1661;53.572;10.174;2023-02-01T09:52:02;6.90;88.30
3298;DHT22;1661;53.572;10.174;2023-02-01T09:54:40;6.90;88.30
3298;DHT22;1661;53.572;10.174;2023-02-01T09:57:11;6.80;88.30
3298;DHT22;1661;53.572;10.174;2023-02-01T09:59:43;6.90;88.70
3298;DHT22;1661;53.572;10.174;2023-02-01T10:02:13;6.80;89.40
3298;DHT22;1661;53.572;10.174;2023-02-01T10:04:41;6.80;89.40
3298;DHT22;1661;53.572;10.174;2023-02-01T10:07:16;6.80;89.70
3298;DHT22;1661;53.572;10.174;2023-02-01T10:09:59;6.80;89.90
3298;DHT22;1661;53.572;10.174;2023-02-01T10:12:54;6.90;89.80
3298;DHT22;1661;53.572;10.174;2023-02-01T10:15:40;6.80;89.10
3298;DHT22;1661;53.572;10.174;2023-02-01T10:18:36;6.90;89.10
3298;DHT22;1661;53.572;10.174;2023-02-01T10:21:10;6.90;88.40
3298;DHT22;1661;53.572;10.174;2023-02-01T10:24:07;7.00;88.20
3298;DHT22;1661;53.572;10.174;2023-02-01T10:26:44;7.10;88.60
3298;DHT22;1661;53.572;10.174;2023-02-01T10:29:15;7.10;88.30
3298;DHT22;1661;53.572;10.174;2023-02-01T10:31:44;7.00;88.50
3298;DHT22;1661;53.572;10.174;2023-02-01T10:34:17;7.10;87.90
3298;DHT22;1661;53.572;10.174;2023-02-01T10:36:52;7.00;87.30
3298;DHT22;1661;53.572;10.174;2023-02-01T10:39:22;7.00;88.00
3298;DHT22;1661;53.572;10.174;2023-02-01T10:41:49;6.90;87.90
3298;DHT22;1661;53.572;10.174;2023-02-01T10:44:20;7.00;88.20
3298;DHT22;1661;53.572;10.174;2023-02-01T10:46:50;7.00;88.20
3298;DHT22;1661;53.572;10.174;2023-02-01T10:49:19;6.90;88.10
3298;DHT22;1661;53.572;10.174;2023-02-01T10:51:52;6.80;88.20
3298;DHT22;1661;53.572;10.174;2023-02-01T10:54:31;6.70;89.10
3298;DHT22;1661;53.572;10.174;2023-02-01T10:56:58;6.70;89.10
3298;DHT22;1661;53.572;10.174;2023-02-01T10:59:27;6.50;88.80
3298;DHT22;1661;53.572;10.174;2023-02-01T11:01:59;6.40;90.00
3298;DHT22;1661;53.572;10.174;2023-02-01T11:04:28;6.50;90.40
3298;DHT22;1661;53.572;10.174;2023-02-01T11:07:07;6.60;90.50
3298;DHT22;1661;53.572;10.174;2023-02-01T11:09:39;6.70;90.90
3298;DHT22;1661;53.572;10.174;2023-02-01T11:12:24;6.70;91.10
3298;DHT22;1661;53.572;10.174;2023-02-01T11:14:57;6.70;91.20
3298;DHT22;1661;53.572;10.174;2023-02-01T11:17:34;6.70;91.10
3298;DHT22;1661;53.572;10.174;2023-02-01T11:20:03;6.80;91.10
3298;DHT22;1661;53.572;10.174;2023-02-01T11:22:31;6.80;90.80
3298;DHT22;1661;53.572;10.174;2023-02-01T11:24:59;6.50;92.80
3298;DHT22;1661;53.572;10.174;2023-02-01T11:27:27;6.50;92.80
3298;DHT22;1661;53.572;10.174;2023-02-01T11:29:57;6.40;91.50
3298;DHT22;1661;53.572;10.174;2023-02-01T11:32:27;6.40;92.00
3298;DHT22;1661;53.572;10.174;2023-02-01T11:34:57;6.50;92.10
3298;DHT22;1661;53.572;10.174;2023-02-01T11:37:29;6.50;92.20
3298;DHT22;1661;53.572;10.174;2023-02-01T11:39:58;6.50;91.80
3298;DHT22;1661;53.572;10.174;2023-02-01T11:42:26;6.60;92.00
3298;DHT22;1661;53.572;10.174;2023-02-01T11:45:17;6.60;92.30
3298;DHT22;1661;53.572;10.174;2023-02-01T11:47:44;6.60;92.50
3298;DHT22;1661;53.572;10.174;2023-02-01T11:50:15;6.50;92.60
3298;DHT22;1661;53.572;10.174;2023-02-01T11:53:00;6.50;93.20
3298;DHT22;1661;53.572;10.174;2023-02-01T11:55:47;6.50;93.00
3298;DHT22;1661;53.572;10.174;2023-02-01T11:58:35;6.50;92.80
3298;DHT22;1661;53.572;10.174;2023-02-01T12:01:16;6.50;92.90
3298;DHT22;1661;53.572;10.174;2023-02-01T12:06:58;6.70;92.90
3298;DHT22;1661;53.572;10.174;2023-02-01T12:09:45;6.60;92.70
3298;DHT22;1661;53.572;10.174;2023-02-01T12:12:19;6.50;92.40
3298;DHT22;1661;53.572;10.174;2023-02-01T12:15:03;6.40;92.20
3298;DHT22;1661;53.572;10.174;2023-02-01T12:23:39;6.50;91.80
3298;DHT22;1661;53.572;10.174;2023-02-01T12:26:35;6.50;91.30
3298;DHT22;1661;53.572;10.174;2023-02-01T12:29:24;6.50;91.40
3298;DHT22;1661;53.572;10.174;2023-02-01T12:32:09;6.30;91.60
3298;DHT22;1661;53.572;10.174;2023-02-01T12:34:53;6.20;92.50
3298;DHT22;1661;53.572;10.174;2023-02-01T12:37:31;6.20;92.80
3298;DHT22;1661;53.572;10.174;2023-02-01T12:40:30;6.00;93.00
3298;DHT22;1661;53.572;10.174;2023-02-01T12:43:07;6.00;93.60
3298;DHT22;1661;53.572;10.174;2023-02-01T12:45:41;5.90;93.70
3298;DHT22;1661;53.572;10.174;2023-02-01T12:48:25;5.80;94.00
3298;DHT22;1661;53.572;10.174;2023-02-01T12:50:54;5.80;94.40
3298;DHT22;1661;53.572;10.174;2023-02-01T12:53:28;5.80;94.30
3298;DHT22;1661;53.572;10.174;2023-02-01T12:56:01;5.70;94.00
3298;DHT22;1661;53.572;10.174;2023-02-01T12:58:38;5.70;94.00
3298;DHT22;1661;53.572;10.174;2023-02-01T13:01:09;5.50;94.30
3298;DHT22;1661;53.572;10.174;2023-02-01T13:03:41;5.40;94.50
3298;DHT22;1661;53.572;10.174;2023-02-01T13:06:13;5.30;94.10
3298;DHT22;1661;53.572;10.174;2023-02-01T13:08:47;5.30;94.20
3298;DHT22;1661;53.572;10.174;2023-02-01T13:11:20;5.30;94.30
3298;DHT22;1661;53.572;10.174;2023-02-01T13:13:56;5.30;93.90
3298;DHT22;1661;53.572;10.174;2023-02-01T13:16:27;5.30;94.20
3298;DHT22;1661;53.572;10.174;2023-02-01T13:19:03;5.40;93.80
3298;DHT22;1661;53.572;10.174;2023-02-01T13:21:34;5.20;93.80
3298;DHT22;1661;53.572;10.174;2023-02-01T13:24:02;5.30;94.00
3298;DHT22;1661;53.572;10.174;2023-02-01T13:26:31;5.40;93.90
3298;DHT22;1661;53.572;10.174;2023-02-01T13:29:01;5.40;93.60
3298;DHT22;1661;53.572;10.174;2023-02-01T13:31:53;5.30;93.50
3298;DHT22;1661;53.572;10.174;2023-02-01T13:34:39;5.50;93.70
3298;DHT22;1661;53.572;10.174;2023-02-01T13:37:20;5.70;94.50
3298;DHT22;1661;53.572;10.174;2023-02-01T13:40:06;6.00;94.60
3298;DHT22;1661;53.572;10.174;2023-02-01T13:42:47;6.20;93.00
3298;DHT22;1661;53.572;10.174;2023-02-01T13:45:16;6.40;91.90
3298;DHT22;1661;53.572;10.174;2023-02-01T13:47:46;6.30;90.50
3298;DHT22;1661;53.572;10.174;2023-02-01T13:50:21;6.40;90.00
3298;DHT22;1661;53.572;10.174;2023-02-01T13:52:53;6.30;89.80
3298;DHT22;1661;53.572;10.174;2023-02-01T13:55:38;6.30;90.60
3298;DHT22;1661;53.572;10.174;2023-02-01T13:58:15;6.30;90.00
3298;DHT22;1661;53.572;10.174;2023-02-01T14:00:44;6.00;89.80
3298;DHT22;1661;53.572;10.174;2023-02-01T14:03:13;6.10;90.30
3298;DHT22;1661;53.572;10.174;2023-02-01T14:06:00;6.20;89.90
3298;DHT22;1661;53.572;10.174;2023-02-01T14:08:43;6.20;90.00
3298;DHT22;1661;53.572;10.174;2023-02-01T14:11:36;6.00;90.80
3298;DHT22;1661;53.572;10.174;2023-02-01T14:17:40;6.00;91.20
3298;DHT22;1661;53.572;10.174;2023-02-01T14:23:29;6.10;91.50
3298;DHT22;1661;53.572;10.174;2023-02-01T14:26:15;6.00;90.40
3298;DHT22;1661;53.572;10.174;2023-02-01T14:28:46;5.80;90.90
3298;DHT22;1661;53.572;10.174;2023-02-01T14:34:04;5.60;90.30
3298;DHT22;1661;53.572;10.174;2023-02-01T14:36:42;5.60;90.20
3298;DHT22;1661;53.572;10.174;2023-02-01T14:42:19;5.40;89.30
3298;DHT22;1661;53.572;10.174;2023-02-01T14:44:48;5.10;89.60
3298;DHT22;1661;53.572;10.174;2023-02-01T14:47:33;5.10;90.10
3298;DHT22;1661;53.572;10.174;2023-02-01T14:52:58;5.10;90.50
3298;DHT22;1661;53.572;10.174;2023-02-01T14:55:34;5.10;90.70
3298;DHT22;1661;53.572;10.174;2023-02-01T14:58:04;5.10;91.00
3298;DHT22;1661;53.572;10.174;2023-02-01T15:00:32;5.10;91.20
3298;DHT22;1661;53.572;10.174;2023-02-01T15:03:21;5.20;91.60
3298;DHT22;1661;53.572;10.174;2023-02-01T15:05:56;5.30;91.70
3298;DHT22;1661;53.572;10.174;2023-02-01T15:08:26;5.30;91.50
3298;DHT22;1661;53.572;10.174;2023-02-01T15:10:54;5.30;91.70
3298;DHT22;1661;53.572;10.174;2023-02-01T15:13:23;5.30;91.90
3298;DHT22;1661;53.572;10.174;2023-02-01T15:16:01;5.40;91.90
3298;DHT22;1661;53.572;10.174;2023-02-01T15:18:28;5.40;92.10
3298;DHT22;1661;53.572;10.174;2023-02-01T15:21:01;5.40;92.20
3298;DHT22;1661;53.572;10.174;2023-02-01T15:23:29;5.20;92.70
3298;DHT22;1661;53.572;10.174;2023-02-01T15:25:56;5.10;93.20
3298;DHT22;1661;53.572;10.174;2023-02-01T15:28:25;5.10;93.30
3298;DHT22;1661;53.572;10.174;2023-02-01T15:30:56;5.20;93.50
3298;DHT22;1661;53.572;10.174;2023-02-01T15:33:24;5.20;93.50
3298;DHT22;1661;53.572;10.174;2023-02-01T15:35:52;5.30;93.30
3298;DHT22;1661;53.572;10.174;2023-02-01T15:38:43;5.20;93.20
3298;DHT22;1661;53.572;10.174;2023-02-01T15:41:13;5.10;93.30
3298;DHT22;1661;53.572;10.174;2023-02-01T15:43:43;5.20;93.40
3298;DHT22;1661;53.572;10.174;2023-02-01T15:46:12;5.10;93.10
3298;DHT22;1661;53.572;10.174;2023-02-01T15:48:44;5.00;93.50
3298;DHT22;1661;53.572;10.174;2023-02-01T15:51:14;5.00;93.70
3298;DHT22;1661;53.572;10.174;2023-02-01T15:53:50;5.00;93.90
3298;DHT22;1661;53.572;10.174;2023-02-01T15:56:23;5.00;94.10
3298;DHT22;1661;53.572;10.174;2023-02-01T15:58:53;5.00;94.00
3298;DHT22;1661;53.572;10.174;2023-02-01T16:01:22;4.90;94.40
3298;DHT22;1661;53.572;10.174;2023-02-01T16:03:48;4.90;94.50
3298;DHT22;1661;53.572;10.174;2023-02-01T16:06:29;5.00;94.50
3298;DHT22;1661;53.572;10.174;2023-02-01T16:09:09;5.10;94.60
3298;DHT22;1661;53.572;10.174;2023-02-01T16:11:41;5.10;94.20
3298;DHT22;1661;53.572;10.174;2023-02-01T16:14:12;5.10;94.60
3298;DHT22;1661;53.572;10.174;2023-02-01T16:16:39;5.20;94.20
3298;DHT22;1661;53.572;10.174;2023-02-01T16:19:06;5.20;93.80
3298;DHT22;1661;53.572;10.174;2023-02-01T16:21:33;5.20;93.90
3298;DHT22;1661;53.572;10.174;2023-02-01T16:24:01;5.30;93.80
3298;DHT22;1661;53.572;10.174;2023-02-01T16:26:29;5.30;93.70
3298;DHT22;1661;53.572;10.174;2023-02-01T16:28:56;5.30;93.40
3298;DHT22;1661;53.572;10.174;2023-02-01T16:31:26;5.30;93.40
3298;DHT22;1661;53.572;10.174;2023-02-01T16:33:54;5.40;93.50
3298;DHT22;1661;53.572;10.174;2023-02-01T16:36:21;5.40;93.60
3298;DHT22;1661;53.572;10.174;2023-02-01T16:38:48;5.40;93.30
3298;DHT22;1661;53.572;10.174;2023-02-01T16:41:19;5.50;93.20
3298;DHT22;1661;53.572;10.174;2023-02-01T16:43:49;5.50;93.10
3298;DHT22;1661;53.572;10.174;2023-02-01T16:46:18;5.60;92.80
3298;DHT22;1661;53.572;10.174;2023-02-01T16:48:51;5.50;92.50
3298;DHT22;1661;53.572;10.174;2023-02-01T16:51:18;5.60;92.60
3298;DHT22;1661;53.572;10.174;2023-02-01T16:53:45;5.60;92.50
3298;DHT22;1661;53.572;10.174;2023-02-01T16:56:14;5.60;92.30
3298;DHT22;1661;53.572;10.174;2023-02-01T16:58:43;5.60;92.10
3298;DHT22;1661;53.572;10.174;2023-02-01T17:01:11;5.60;92.20
3298;DHT22;1661;53.572;10.174;2023-02-01T17:03:38;5.60;92.10